createdAt,value
2023-04-29T00:01:12.550Z,10.27
2023-04-29T00:06:16.344Z,10.80
2023-04-29T00:11:21.388Z,10.05
2023-04-29T00:16:25.045Z,10.02
2023-04-29T00:21:29.294Z,10.68
2023-04-29T00:26:35.291Z,9.00
2023-04-29T00:31:39.636Z,9.13
2023-04-29T00:36:43.417Z,10.32
2023-04-29T00:41:48.455Z,9.70
2023-04-29T00:46:52.222Z,8.20
2023-04-29T00:51:57.646Z,9.23
2023-04-29T00:57:04.422Z,9.23
2023-04-29T01:02:07.986Z,8.85
2023-04-29T01:07:17.869Z,8.98
2023-04-29T01:12:36.332Z,8.20
2023-04-29T01:17:43.667Z,8.18
2023-04-29T01:22:47.509Z,8.80
2023-04-29T01:28:04.365Z,9.48
2023-04-29T01:33:16.291Z,8.40
2023-04-29T01:38:32.136Z,9.15
2023-04-29T01:43:40.150Z,8.43
2023-04-29T01:48:55.578Z,10.30
2023-04-29T01:53:59.071Z,9.07
2023-04-29T01:59:04.561Z,8.60
2023-04-29T02:04:14.423Z,9.60
2023-04-29T02:09:18.208Z,8.40
2023-04-29T02:14:29.171Z,10.02
2023-04-29T02:19:33.174Z,10.52
2023-04-29T02:24:37.059Z,10.10
2023-04-29T02:29:41.874Z,10.70
2023-04-29T02:34:46.082Z,11.00
2023-04-29T02:39:49.849Z,10.25
2023-04-29T02:44:54.546Z,10.60
2023-04-29T02:49:57.751Z,9.98
2023-04-29T02:55:00.983Z,11.25
2023-04-29T03:00:06.434Z,10.85
2023-04-29T03:05:10.222Z,11.23
2023-04-29T03:10:13.603Z,10.80
2023-04-29T03:15:20.280Z,12.27
2023-04-29T03:20:23.851Z,11.60
2023-04-29T03:25:27.100Z,12.25
2023-04-29T03:30:32.221Z,11.57
2023-04-29T03:35:36.148Z,12.23
2023-04-29T03:40:57.835Z,12.15
2023-04-29T03:46:03.009Z,12.50
2023-04-29T03:51:07.591Z,13.43
2023-04-29T03:56:11.616Z,13.02
2023-04-29T04:01:17.034Z,14.27
2023-04-29T04:06:22.425Z,13.77
2023-04-29T04:11:27.828Z,15.27
2023-04-29T04:16:36.024Z,13.77
2023-04-29T04:21:39.787Z,13.40
2023-04-29T04:26:45.650Z,12.98
2023-04-29T04:31:59.448Z,13.23
2023-04-29T04:37:02.796Z,14.55
2023-04-29T04:42:07.733Z,12.65
2023-04-29T04:47:13.564Z,12.00
2023-04-29T04:52:32.837Z,11.77
2023-04-29T04:57:45.774Z,13.35
2023-04-29T05:02:51.309Z,11.93
2023-04-29T05:13:06.382Z,11.98
2023-04-29T05:18:12.052Z,11.23
2023-04-29T05:23:17.590Z,10.32
2023-04-29T05:28:23.012Z,10.75
2023-04-29T05:33:28.877Z,8.33
2023-04-29T05:38:32.563Z,9.48
2023-04-29T05:43:41.270Z,12.13
2023-04-29T05:48:46.165Z,12.15
2023-04-29T05:53:49.460Z,11.53
2023-04-29T05:58:53.134Z,11.95
2023-04-29T06:03:58.158Z,14.93
2023-04-29T06:09:26.992Z,14.88
2023-04-29T06:14:32.622Z,14.30
2023-04-29T06:19:37.343Z,14.38
2023-04-29T06:24:40.576Z,13.17
2023-04-29T06:29:45.043Z,12.60
2023-04-29T06:34:51.357Z,11.05
2023-04-29T06:40:13.310Z,9.65
2023-04-29T06:45:36.860Z,9.05
2023-04-29T06:50:52.844Z,7.70
2023-04-29T06:55:56.544Z,7.57
2023-04-29T07:00:59.795Z,8.55
2023-04-29T07:06:04.948Z,7.70
2023-04-29T07:11:08.564Z,7.10
2023-04-29T07:16:18.503Z,7.35
2023-04-29T07:21:23.595Z,7.47
2023-04-29T07:26:27.369Z,5.88
2023-04-29T07:31:31.625Z,7.03
2023-04-29T07:36:36.771Z,6.35
2023-04-29T07:41:40.412Z,6.55
2023-04-29T07:46:44.270Z,5.90
2023-04-29T07:51:49.441Z,6.85
2023-04-29T07:56:53.214Z,6.68
2023-04-29T08:01:57.388Z,5.97
2023-04-29T08:07:05.703Z,7.80
2023-04-29T08:12:10.151Z,8.00
2023-04-29T08:17:16.998Z,9.32
2023-04-29T08:22:21.680Z,10.13
2023-04-29T08:27:25.294Z,10.38
2023-04-29T08:32:29.028Z,11.88
2023-04-29T08:37:34.023Z,10.88
2023-04-29T08:42:38.967Z,9.52
2023-04-29T08:47:43.529Z,9.53
2023-04-29T08:52:48.696Z,9.20
2023-04-29T08:57:55.897Z,9.35
2023-04-29T09:02:59.762Z,9.68
2023-04-29T09:08:06.619Z,7.18
2023-04-29T09:13:10.309Z,8.05
2023-04-29T09:18:13.537Z,8.02
2023-04-29T09:23:18.502Z,8.93
2023-04-29T09:28:23.095Z,8.80
2023-04-29T09:33:28.663Z,9.45
2023-04-29T09:38:33.580Z,10.57
2023-04-29T09:43:37.205Z,10.38
2023-04-29T09:48:40.420Z,7.57
2023-04-29T09:53:45.346Z,9.07
2023-04-29T09:58:48.999Z,7.63
2023-04-29T10:03:54.411Z,7.13
2023-04-29T10:08:59.176Z,6.20
2023-04-29T10:14:04.309Z,7.13
2023-04-29T10:19:13.199Z,6.95
2023-04-29T10:24:20.257Z,6.50
2023-04-29T10:29:24.463Z,5.70
2023-04-29T10:34:29.452Z,5.75
2023-04-29T10:39:44.026Z,6.45
2023-04-29T10:45:20.467Z,6.80
2023-04-29T10:50:24.140Z,6.55
2023-04-29T10:55:28.777Z,6.38
2023-04-29T11:00:33.464Z,7.73
2023-04-29T11:05:38.158Z,8.30
2023-04-29T11:10:44.525Z,10.90
2023-04-29T11:15:48.261Z,9.85
2023-04-29T11:21:13.952Z,9.73
2023-04-29T11:26:21.739Z,11.48
2023-04-29T11:31:30.014Z,13.55
2023-04-29T11:36:33.458Z,12.88
2023-04-29T11:41:39.710Z,12.25
2023-04-29T11:46:42.916Z,13.50
2023-04-29T11:51:46.384Z,11.48
2023-04-29T11:56:50.976Z,12.88
2023-04-29T12:01:54.309Z,12.70
2023-04-29T12:06:59.715Z,13.23
2023-04-29T12:12:05.432Z,12.32
2023-04-29T12:17:10.876Z,12.20
2023-04-29T12:22:14.483Z,11.15
2023-04-29T12:27:19.479Z,12.52
2023-04-29T12:32:24.969Z,11.25
2023-04-29T12:42:35.280Z,10.80
2023-04-29T12:47:40.865Z,9.90
2023-04-29T12:52:44.607Z,8.70
2023-04-29T12:57:49.689Z,8.57
2023-04-29T13:02:53.347Z,7.60
2023-04-29T13:07:57.022Z,7.38
2023-04-29T13:13:02.580Z,7.40
2023-04-29T13:18:06.292Z,8.32
2023-04-29T13:23:10.159Z,8.50
2023-04-29T13:28:15.105Z,8.82
2023-04-29T13:33:18.614Z,7.70
2023-04-29T13:38:23.081Z,9.68
2023-04-29T13:43:35.903Z,8.68
2023-04-29T13:59:30.486Z,8.77
2023-04-29T14:04:19.228Z,8.93
2023-04-29T14:09:22.990Z,7.75
2023-04-29T14:14:27.655Z,7.97
2023-04-29T14:19:30.889Z,8.10
2023-04-29T14:24:34.104Z,7.50
2023-04-29T14:29:38.700Z,7.47
2023-04-29T14:34:42.544Z,7.43
2023-04-29T14:39:45.720Z,6.57
2023-04-29T14:44:50.286Z,7.57
2023-04-29T14:49:53.439Z,7.37
2023-04-29T14:54:56.762Z,6.22
2023-04-29T15:00:01.552Z,6.63
2023-04-29T15:05:05.028Z,6.87
2023-04-29T15:10:09.506Z,6.95
2023-04-29T15:15:14.193Z,6.80
2023-04-29T15:20:17.807Z,5.73
2023-04-29T15:25:22.094Z,5.60
2023-04-29T15:30:29.545Z,7.35
2023-04-29T15:40:36.734Z,6.60
2023-04-29T15:45:42.542Z,6.70
2023-04-29T15:50:46.771Z,6.88
2023-04-29T15:55:50.094Z,5.38
2023-04-29T16:00:54.827Z,6.07
2023-04-29T16:05:58.254Z,6.60
2023-04-29T16:11:01.564Z,6.60
2023-04-29T16:16:06.510Z,6.43
2023-04-29T16:21:09.852Z,6.30
2023-04-29T16:26:13.691Z,6.82
2023-04-29T16:31:20.060Z,6.68
2023-04-29T16:36:23.459Z,5.90
2023-04-29T16:41:27.165Z,5.47
2023-04-29T16:46:32.578Z,6.05
2023-04-29T16:51:36.405Z,5.00
2023-04-29T16:56:40.104Z,5.60
2023-04-29T17:01:45.291Z,5.38
2023-04-29T17:06:49.106Z,5.65
2023-04-29T17:11:52.965Z,5.35
2023-04-29T17:16:58.036Z,6.20
2023-04-29T17:22:01.622Z,5.85
2023-04-29T17:27:05.961Z,6.50
2023-04-29T17:32:13.493Z,6.10
2023-04-29T17:37:18.027Z,6.07
2023-04-29T17:42:22.252Z,7.32
2023-04-29T17:47:27.375Z,6.90
2023-04-29T17:52:31.906Z,6.65
2023-04-29T17:57:35.579Z,6.47
2023-04-29T18:02:40.696Z,6.15
2023-04-29T18:07:44.552Z,5.95
2023-04-29T18:12:47.932Z,6.70
2023-04-29T18:17:54.250Z,6.53
2023-04-29T18:22:58.137Z,6.93
2023-04-29T18:28:19.367Z,6.45
2023-04-29T18:33:26.589Z,6.80
2023-04-29T18:38:29.882Z,7.20
2023-04-29T18:43:33.104Z,8.07
2023-04-29T18:48:38.999Z,8.02
2023-04-29T18:53:42.332Z,7.43
2023-04-29T18:58:45.717Z,7.60
2023-04-29T19:03:50.418Z,8.10
2023-04-29T19:08:53.598Z,8.20
2023-04-29T19:13:57.149Z,8.55
2023-04-29T19:19:01.713Z,8.35
2023-04-29T19:24:05.340Z,8.15
2023-04-29T19:29:08.616Z,7.22
2023-04-29T19:34:13.785Z,7.28
2023-04-29T19:39:18.470Z,8.57
2023-04-29T19:44:21.859Z,7.97
2023-04-29T19:49:26.576Z,6.75
2023-04-29T19:54:31.028Z,8.32
2023-04-29T19:59:34.732Z,7.65
2023-04-29T20:04:39.834Z,7.40
2023-04-29T20:09:45.063Z,7.53
2023-04-29T20:14:48.844Z,7.50
2023-04-29T20:19:54.187Z,7.75
2023-04-29T20:24:58.031Z,7.18
2023-04-29T20:30:01.861Z,7.18
2023-04-29T20:35:08.257Z,7.63
2023-04-29T20:40:12.224Z,7.45
2023-04-29T20:45:16.088Z,7.85
2023-04-29T20:50:20.933Z,7.55
2023-04-29T20:55:24.480Z,7.67
2023-04-29T21:00:27.708Z,8.25
2023-04-29T21:05:32.325Z,8.48
2023-04-29T21:10:35.698Z,8.53
2023-04-29T21:15:38.975Z,8.60
2023-04-29T21:20:43.662Z,8.02
2023-04-29T21:25:46.889Z,7.32
2023-04-29T21:30:50.203Z,8.25
2023-04-29T21:35:56.195Z,7.88
2023-04-29T21:41:01.745Z,8.65
2023-04-29T21:51:12.386Z,7.90
2023-04-29T21:56:16.073Z,7.53
2023-04-29T22:01:40.283Z,7.43
2023-04-29T22:06:45.152Z,7.65
2023-04-29T22:11:48.445Z,7.30
2023-04-29T22:16:51.773Z,7.75
2023-04-29T22:21:56.370Z,8.23
2023-04-29T22:26:59.658Z,7.70
2023-04-29T22:32:03.504Z,8.30
2023-04-29T22:37:08.468Z,8.05
2023-04-29T22:42:11.723Z,8.00
2023-04-29T22:47:15.183Z,8.70
2023-04-29T22:52:19.791Z,7.90
2023-04-29T22:57:23.523Z,6.97
2023-04-29T23:02:29.302Z,7.00
2023-04-29T23:07:34.992Z,7.07
2023-04-29T23:12:38.191Z,6.33
2023-04-29T23:17:41.408Z,6.45
2023-04-29T23:22:46.013Z,6.22
2023-04-29T23:27:49.225Z,6.97
2023-04-29T23:32:52.445Z,6.95
2023-04-29T23:37:57.148Z,7.30
2023-04-29T23:43:01.292Z,7.53
2023-04-29T23:48:05.306Z,7.03
2023-04-29T23:53:10.400Z,6.78
2023-04-29T23:58:13.645Z,6.55
